sensor_id;sensor_type;location;lat;lon;timestamp;P1;durP1;ratioP1;P2;durP2;ratioP2
39410;SDS011;26579;43.238;23.124;2023-08-06T00:01:20;3.63;;;1.95;;
39410;SDS011;26579;43.238;23.124;2023-08-06T00:03:46;3.38;;;1.88;;
39410;SDS011;26579;43.238;23.124;2023-08-06T00:06:12;3.58;;;2.03;;
39410;SDS011;26579;43.238;23.124;2023-08-06T00:08:38;6.55;;;2.50;;
39410;SDS011;26579;43.238;23.124;2023-08-06T00:11:04;7.47;;;2.08;;
39410;SDS011;26579;43.238;23.124;2023-08-06T00:13:30;6.70;;;2.10;;
39410;SDS011;26579;43.238;23.124;2023-08-06T00:15:55;8.25;;;2.22;;
39410;SDS011;26579;43.238;23.124;2023-08-06T00:18:32;5.22;;;2.10;;
39410;SDS011;26579;43.238;23.124;2023-08-06T00:20:58;7.22;;;2.67;;
39410;SDS011;26579;43.238;23.124;2023-08-06T00:23:24;7.88;;;2.90;;
39410;SDS011;26579;43.238;23.124;2023-08-06T00:25:50;8.40;;;2.65;;
39410;SDS011;26579;43.238;23.124;2023-08-06T00:28:15;8.65;;;2.05;;
39410;SDS011;26579;43.238;23.124;2023-08-06T00:30:41;4.57;;;1.73;;
39410;SDS011;26579;43.238;23.124;2023-08-06T00:33:07;4.32;;;2.05;;
39410;SDS011;26579;43.238;23.124;2023-08-06T00:35:33;4.78;;;2.28;;
39410;SDS011;26579;43.238;23.124;2023-08-06T00:37:58;4.75;;;1.95;;
39410;SDS011;26579;43.238;23.124;2023-08-06T00:40:24;3.28;;;1.90;;
39410;SDS011;26579;43.238;23.124;2023-08-06T00:42:50;5.03;;;2.22;;
39410;SDS011;26579;43.238;23.124;2023-08-06T00:45:15;5.03;;;2.00;;
39410;SDS011;26579;43.238;23.124;2023-08-06T00:47:41;3.63;;;1.52;;
39410;SDS011;26579;43.238;23.124;2023-08-06T00:50:07;4.13;;;1.75;;
39410;SDS011;26579;43.238;23.124;2023-08-06T00:52:34;6.60;;;2.17;;
39410;SDS011;26579;43.238;23.124;2023-08-06T00:55:01;8.02;;;2.15;;
39410;SDS011;26579;43.238;23.124;2023-08-06T00:57:26;2.53;;;1.45;;
39410;SDS011;26579;43.238;23.124;2023-08-06T00:59:53;4.18;;;2.03;;
39410;SDS011;26579;43.238;23.124;2023-08-06T01:02:19;5.93;;;2.08;;
39410;SDS011;26579;43.238;23.124;2023-08-06T01:04:45;3.33;;;1.88;;
39410;SDS011;26579;43.238;23.124;2023-08-06T01:12:42;5.68;;;1.77;;
39410;SDS011;26579;43.238;23.124;2023-08-06T01:15:18;2.47;;;1.35;;
39410;SDS011;26579;43.238;23.124;2023-08-06T01:17:47;3.13;;;1.73;;
39410;SDS011;26579;43.238;23.124;2023-08-06T01:20:14;2.47;;;1.35;;
39410;SDS011;26579;43.238;23.124;2023-08-06T01:22:39;4.05;;;1.48;;
39410;SDS011;26579;43.238;23.124;2023-08-06T01:25:05;3.30;;;1.48;;
39410;SDS011;26579;43.238;23.124;2023-08-06T01:27:48;4.85;;;1.73;;
39410;SDS011;26579;43.238;23.124;2023-08-06T01:30:20;3.10;;;1.45;;
39410;SDS011;26579;43.238;23.124;2023-08-06T01:32:52;3.53;;;1.67;;
39410;SDS011;26579;43.238;23.124;2023-08-06T01:35:20;4.18;;;1.35;;
39410;SDS011;26579;43.238;23.124;2023-08-06T01:37:48;4.30;;;1.40;;
39410;SDS011;26579;43.238;23.124;2023-08-06T01:40:14;4.07;;;1.50;;
39410;SDS011;26579;43.238;23.124;2023-08-06T01:42:40;3.05;;;1.23;;
39410;SDS011;26579;43.238;23.124;2023-08-06T01:45:07;5.13;;;1.70;;
39410;SDS011;26579;43.238;23.124;2023-08-06T01:47:33;3.67;;;1.80;;
39410;SDS011;26579;43.238;23.124;2023-08-06T01:49:59;4.38;;;1.75;;
39410;SDS011;26579;43.238;23.124;2023-08-06T01:52:25;6.25;;;2.35;;
39410;SDS011;26579;43.238;23.124;2023-08-06T01:54:52;3.38;;;1.70;;
39410;SDS011;26579;43.238;23.124;2023-08-06T01:57:17;4.07;;;1.60;;
39410;SDS011;26579;43.238;23.124;2023-08-06T01:59:43;4.40;;;1.50;;
39410;SDS011;26579;43.238;23.124;2023-08-06T02:02:09;4.40;;;1.73;;
39410;SDS011;26579;43.238;23.124;2023-08-06T02:04:35;2.45;;;1.38;;
39410;SDS011;26579;43.238;23.124;2023-08-06T02:07:00;5.50;;;1.45;;
39410;SDS011;26579;43.238;23.124;2023-08-06T02:09:26;3.60;;;1.45;;
39410;SDS011;26579;43.238;23.124;2023-08-06T02:11:52;4.88;;;1.52;;
39410;SDS011;26579;43.238;23.124;2023-08-06T02:14:18;5.72;;;1.48;;
39410;SDS011;26579;43.238;23.124;2023-08-06T02:16:44;3.47;;;1.40;;
39410;SDS011;26579;43.238;23.124;2023-08-06T02:19:10;5.63;;;1.75;;
39410;SDS011;26579;43.238;23.124;2023-08-06T02:21:35;6.47;;;2.00;;
39410;SDS011;26579;43.238;23.124;2023-08-06T02:24:01;2.00;;;1.35;;
39410;SDS011;26579;43.238;23.124;2023-08-06T02:26:29;2.22;;;1.20;;
39410;SDS011;26579;43.238;23.124;2023-08-06T02:28:55;2.88;;;1.23;;
39410;SDS011;26579;43.238;23.124;2023-08-06T02:31:21;2.97;;;1.45;;
39410;SDS011;26579;43.238;23.124;2023-08-06T02:33:46;2.40;;;1.33;;
39410;SDS011;26579;43.238;23.124;2023-08-06T02:36:12;3.85;;;1.52;;
39410;SDS011;26579;43.238;23.124;2023-08-06T02:38:38;4.15;;;1.33;;
39410;SDS011;26579;43.238;23.124;2023-08-06T02:41:04;2.20;;;1.38;;
39410;SDS011;26579;43.238;23.124;2023-08-06T02:43:30;3.80;;;1.90;;
39410;SDS011;26579;43.238;23.124;2023-08-06T02:45:59;2.83;;;1.33;;
39410;SDS011;26579;43.238;23.124;2023-08-06T02:48:25;2.00;;;1.00;;
39410;SDS011;26579;43.238;23.124;2023-08-06T02:50:52;2.75;;;1.42;;
39410;SDS011;26579;43.238;23.124;2023-08-06T02:53:18;4.03;;;1.48;;
39410;SDS011;26579;43.238;23.124;2023-08-06T02:55:48;3.75;;;1.45;;
39410;SDS011;26579;43.238;23.124;2023-08-06T02:58:16;2.15;;;1.08;;
39410;SDS011;26579;43.238;23.124;2023-08-06T03:01:05;3.45;;;1.10;;
39410;SDS011;26579;43.238;23.124;2023-08-06T03:03:38;2.85;;;1.20;;
39410;SDS011;26579;43.238;23.124;2023-08-06T03:06:05;1.77;;;1.00;;
39410;SDS011;26579;43.238;23.124;2023-08-06T03:08:41;3.45;;;1.55;;
39410;SDS011;26579;43.238;23.124;2023-08-06T03:11:07;2.75;;;1.15;;
39410;SDS011;26579;43.238;23.124;2023-08-06T03:13:33;2.80;;;1.40;;
39410;SDS011;26579;43.238;23.124;2023-08-06T03:16:00;2.25;;;1.00;;
39410;SDS011;26579;43.238;23.124;2023-08-06T03:18:28;3.00;;;1.25;;
39410;SDS011;26579;43.238;23.124;2023-08-06T03:20:56;1.95;;;0.95;;
39410;SDS011;26579;43.238;23.124;2023-08-06T03:23:26;2.15;;;0.90;;
39410;SDS011;26579;43.238;23.124;2023-08-06T03:25:52;2.72;;;1.35;;
39410;SDS011;26579;43.238;23.124;2023-08-06T03:28:18;2.63;;;1.10;;
39410;SDS011;26579;43.238;23.124;2023-08-06T03:30:45;1.52;;;0.90;;
39410;SDS011;26579;43.238;23.124;2023-08-06T03:33:11;2.88;;;0.95;;
39410;SDS011;26579;43.238;23.124;2023-08-06T03:35:38;1.70;;;1.08;;
39410;SDS011;26579;43.238;23.124;2023-08-06T03:38:03;5.05;;;1.00;;
39410;SDS011;26579;43.238;23.124;2023-08-06T03:40:29;4.13;;;1.10;;
39410;SDS011;26579;43.238;23.124;2023-08-06T03:42:56;2.58;;;1.23;;
39410;SDS011;26579;43.238;23.124;2023-08-06T03:45:22;4.07;;;1.52;;
39410;SDS011;26579;43.238;23.124;2023-08-06T03:47:48;2.80;;;1.17;;
39410;SDS011;26579;43.238;23.124;2023-08-06T03:50:14;3.47;;;1.13;;
39410;SDS011;26579;43.238;23.124;2023-08-06T03:52:40;3.33;;;1.42;;
39410;SDS011;26579;43.238;23.124;2023-08-06T03:55:06;4.15;;;1.40;;
39410;SDS011;26579;43.238;23.124;2023-08-06T03:57:32;5.15;;;1.33;;
39410;SDS011;26579;43.238;23.124;2023-08-06T03:59:58;2.25;;;1.25;;
39410;SDS011;26579;43.238;23.124;2023-08-06T04:02:28;4.60;;;1.50;;
39410;SDS011;26579;43.238;23.124;2023-08-06T04:04:53;2.22;;;1.38;;
39410;SDS011;26579;43.238;23.124;2023-08-06T04:07:19;8.88;;;2.03;;
39410;SDS011;26579;43.238;23.124;2023-08-06T04:09:54;5.60;;;1.50;;
39410;SDS011;26579;43.238;23.124;2023-08-06T04:12:21;3.72;;;1.98;;
39410;SDS011;26579;43.238;23.124;2023-08-06T04:14:47;3.92;;;1.88;;
39410;SDS011;26579;43.238;23.124;2023-08-06T04:17:13;7.43;;;1.90;;
39410;SDS011;26579;43.238;23.124;2023-08-06T04:19:39;6.97;;;2.20;;
39410;SDS011;26579;43.238;23.124;2023-08-06T04:22:04;4.07;;;2.13;;
39410;SDS011;26579;43.238;23.124;2023-08-06T04:24:30;2.92;;;1.98;;
39410;SDS011;26579;43.238;23.124;2023-08-06T04:26:56;4.50;;;2.03;;
39410;SDS011;26579;43.238;23.124;2023-08-06T04:29:21;7.63;;;2.50;;
39410;SDS011;26579;43.238;23.124;2023-08-06T04:31:47;3.03;;;2.10;;
39410;SDS011;26579;43.238;23.124;2023-08-06T04:34:13;5.30;;;2.45;;
39410;SDS011;26579;43.238;23.124;2023-08-06T04:36:39;2.60;;;1.83;;
39410;SDS011;26579;43.238;23.124;2023-08-06T04:39:07;6.00;;;2.03;;
39410;SDS011;26579;43.238;23.124;2023-08-06T04:41:33;2.95;;;1.80;;
39410;SDS011;26579;43.238;23.124;2023-08-06T04:43:59;3.60;;;2.22;;
39410;SDS011;26579;43.238;23.124;2023-08-06T04:46:25;4.78;;;2.17;;
39410;SDS011;26579;43.238;23.124;2023-08-06T04:48:50;6.00;;;2.03;;
39410;SDS011;26579;43.238;23.124;2023-08-06T04:51:16;5.47;;;2.10;;
39410;SDS011;26579;43.238;23.124;2023-08-06T04:53:42;2.75;;;1.88;;
39410;SDS011;26579;43.238;23.124;2023-08-06T04:56:07;3.53;;;2.20;;
39410;SDS011;26579;43.238;23.124;2023-08-06T04:58:33;3.85;;;2.28;;
39410;SDS011;26579;43.238;23.124;2023-08-06T05:00:59;3.72;;;2.13;;
39410;SDS011;26579;43.238;23.124;2023-08-06T05:03:24;3.95;;;2.88;;
39410;SDS011;26579;43.238;23.124;2023-08-06T05:05:50;4.97;;;2.42;;
39410;SDS011;26579;43.238;23.124;2023-08-06T05:08:15;3.60;;;2.33;;
39410;SDS011;26579;43.238;23.124;2023-08-06T05:10:42;4.97;;;2.50;;
39410;SDS011;26579;43.238;23.124;2023-08-06T05:13:08;3.65;;;2.28;;
39410;SDS011;26579;43.238;23.124;2023-08-06T05:15:34;4.18;;;2.22;;
39410;SDS011;26579;43.238;23.124;2023-08-06T05:18:00;5.05;;;2.67;;
39410;SDS011;26579;43.238;23.124;2023-08-06T05:20:25;4.70;;;2.50;;
39410;SDS011;26579;43.238;23.124;2023-08-06T05:22:51;4.95;;;2.53;;
39410;SDS011;26579;43.238;23.124;2023-08-06T05:25:16;5.20;;;2.80;;
39410;SDS011;26579;43.238;23.124;2023-08-06T05:27:42;6.05;;;2.42;;
39410;SDS011;26579;43.238;23.124;2023-08-06T05:30:08;6.63;;;2.95;;
39410;SDS011;26579;43.238;23.124;2023-08-06T05:32:34;4.53;;;2.95;;
39410;SDS011;26579;43.238;23.124;2023-08-06T05:35:00;5.65;;;2.92;;
39410;SDS011;26579;43.238;23.124;2023-08-06T05:37:25;11.20;;;3.63;;
39410;SDS011;26579;43.238;23.124;2023-08-06T05:39:51;5.40;;;3.42;;
39410;SDS011;26579;43.238;23.124;2023-08-06T05:42:17;5.63;;;3.00;;
39410;SDS011;26579;43.238;23.124;2023-08-06T05:44:42;4.95;;;3.00;;
39410;SDS011;26579;43.238;23.124;2023-08-06T05:47:08;5.72;;;3.00;;
39410;SDS011;26579;43.238;23.124;2023-08-06T05:49:34;5.70;;;2.63;;
39410;SDS011;26579;43.238;23.124;2023-08-06T05:52:00;5.30;;;2.90;;
39410;SDS011;26579;43.238;23.124;2023-08-06T05:54:25;9.15;;;3.70;;
39410;SDS011;26579;43.238;23.124;2023-08-06T05:56:51;4.47;;;2.83;;
39410;SDS011;26579;43.238;23.124;2023-08-06T05:59:16;8.15;;;3.55;;
39410;SDS011;26579;43.238;23.124;2023-08-06T06:01:42;5.30;;;3.28;;
39410;SDS011;26579;43.238;23.124;2023-08-06T06:04:08;4.53;;;3.20;;
39410;SDS011;26579;43.238;23.124;2023-08-06T06:06:33;8.18;;;3.47;;
39410;SDS011;26579;43.238;23.124;2023-08-06T06:08:59;4.90;;;3.47;;
39410;SDS011;26579;43.238;23.124;2023-08-06T06:11:25;6.95;;;3.53;;
39410;SDS011;26579;43.238;23.124;2023-08-06T06:13:51;4.20;;;2.70;;
39410;SDS011;26579;43.238;23.124;2023-08-06T06:16:17;3.55;;;2.75;;
39410;SDS011;26579;43.238;23.124;2023-08-06T06:18:43;4.82;;;3.10;;
39410;SDS011;26579;43.238;23.124;2023-08-06T06:21:09;3.83;;;2.70;;
39410;SDS011;26579;43.238;23.124;2023-08-06T06:23:35;5.03;;;2.60;;
39410;SDS011;26579;43.238;23.124;2023-08-06T06:26:01;3.85;;;2.17;;
39410;SDS011;26579;43.238;23.124;2023-08-06T06:28:27;2.67;;;1.98;;
39410;SDS011;26579;43.238;23.124;2023-08-06T06:30:52;3.63;;;2.30;;
39410;SDS011;26579;43.238;23.124;2023-08-06T06:33:18;6.07;;;2.53;;
39410;SDS011;26579;43.238;23.124;2023-08-06T06:35:44;4.13;;;1.77;;
39410;SDS011;26579;43.238;23.124;2023-08-06T06:38:09;5.15;;;2.60;;
39410;SDS011;26579;43.238;23.124;2023-08-06T06:40:35;4.75;;;2.58;;
39410;SDS011;26579;43.238;23.124;2023-08-06T06:43:01;5.07;;;1.95;;
39410;SDS011;26579;43.238;23.124;2023-08-06T06:45:26;4.13;;;2.40;;
39410;SDS011;26579;43.238;23.124;2023-08-06T06:47:52;3.30;;;1.98;;
39410;SDS011;26579;43.238;23.124;2023-08-06T06:50:18;6.18;;;2.50;;
39410;SDS011;26579;43.238;23.124;2023-08-06T06:52:44;3.78;;;2.50;;
39410;SDS011;26579;43.238;23.124;2023-08-06T06:55:09;5.25;;;3.08;;
39410;SDS011;26579;43.238;23.124;2023-08-06T06:57:35;5.82;;;2.30;;
39410;SDS011;26579;43.238;23.124;2023-08-06T07:00:01;3.33;;;2.00;;
39410;SDS011;26579;43.238;23.124;2023-08-06T07:02:26;4.95;;;2.40;;
39410;SDS011;26579;43.238;23.124;2023-08-06T07:04:53;5.38;;;2.10;;
39410;SDS011;26579;43.238;23.124;2023-08-06T07:07:18;4.75;;;2.17;;
39410;SDS011;26579;43.238;23.124;2023-08-06T07:09:44;6.47;;;2.30;;
39410;SDS011;26579;43.238;23.124;2023-08-06T07:12:10;3.10;;;2.03;;
39410;SDS011;26579;43.238;23.124;2023-08-06T07:14:36;4.63;;;2.20;;
39410;SDS011;26579;43.238;23.124;2023-08-06T07:17:02;4.13;;;2.22;;
39410;SDS011;26579;43.238;23.124;2023-08-06T07:19:28;4.72;;;2.70;;
39410;SDS011;26579;43.238;23.124;2023-08-06T07:21:53;3.15;;;1.73;;
39410;SDS011;26579;43.238;23.124;2023-08-06T07:24:19;3.97;;;2.50;;
39410;SDS011;26579;43.238;23.124;2023-08-06T07:26:45;3.63;;;2.10;;
39410;SDS011;26579;43.238;23.124;2023-08-06T07:29:10;3.03;;;2.28;;
39410;SDS011;26579;43.238;23.124;2023-08-06T07:31:36;4.05;;;2.38;;
39410;SDS011;26579;43.238;23.124;2023-08-06T07:34:02;6.80;;;2.00;;
39410;SDS011;26579;43.238;23.124;2023-08-06T07:36:27;3.00;;;2.13;;
39410;SDS011;26579;43.238;23.124;2023-08-06T07:38:53;4.43;;;1.90;;
39410;SDS011;26579;43.238;23.124;2023-08-06T07:41:19;7.63;;;2.10;;
39410;SDS011;26579;43.238;23.124;2023-08-06T07:43:44;3.03;;;2.00;;
39410;SDS011;26579;43.238;23.124;2023-08-06T07:46:10;3.33;;;2.28;;
39410;SDS011;26579;43.238;23.124;2023-08-06T07:48:36;3.53;;;1.92;;
39410;SDS011;26579;43.238;23.124;2023-08-06T07:51:01;3.22;;;2.13;;
39410;SDS011;26579;43.238;23.124;2023-08-06T07:53:27;5.07;;;2.60;;
39410;SDS011;26579;43.238;23.124;2023-08-06T07:55:53;3.90;;;2.22;;
39410;SDS011;26579;43.238;23.124;2023-08-06T07:58:20;3.40;;;2.33;;
39410;SDS011;26579;43.238;23.124;2023-08-06T08:00:46;2.92;;;2.08;;
39410;SDS011;26579;43.238;23.124;2023-08-06T08:03:12;5.85;;;1.92;;
39410;SDS011;26579;43.238;23.124;2023-08-06T08:05:39;5.18;;;2.72;;
39410;SDS011;26579;43.238;23.124;2023-08-06T08:08:06;10.05;;;3.00;;
39410;SDS011;26579;43.238;23.124;2023-08-06T08:10:32;6.43;;;2.42;;
39410;SDS011;26579;43.238;23.124;2023-08-06T08:12:58;4.00;;;2.50;;
39410;SDS011;26579;43.238;23.124;2023-08-06T08:15:24;3.70;;;2.88;;
39410;SDS011;26579;43.238;23.124;2023-08-06T08:17:50;6.93;;;2.33;;
39410;SDS011;26579;43.238;23.124;2023-08-06T08:20:16;7.47;;;3.38;;
39410;SDS011;26579;43.238;23.124;2023-08-06T08:22:42;4.80;;;2.70;;
39410;SDS011;26579;43.238;23.124;2023-08-06T08:25:07;7.80;;;2.47;;
39410;SDS011;26579;43.238;23.124;2023-08-06T08:27:33;5.88;;;3.10;;
39410;SDS011;26579;43.238;23.124;2023-08-06T08:29:59;3.60;;;2.20;;
39410;SDS011;26579;43.238;23.124;2023-08-06T08:32:25;6.18;;;3.10;;
39410;SDS011;26579;43.238;23.124;2023-08-06T08:34:50;4.57;;;3.05;;
39410;SDS011;26579;43.238;23.124;2023-08-06T08:37:16;3.50;;;2.30;;
39410;SDS011;26579;43.238;23.124;2023-08-06T08:39:42;4.20;;;2.60;;
39410;SDS011;26579;43.238;23.124;2023-08-06T08:42:08;4.43;;;2.20;;
39410;SDS011;26579;43.238;23.124;2023-08-06T08:44:35;5.95;;;2.65;;
39410;SDS011;26579;43.238;23.124;2023-08-06T08:47:02;3.70;;;2.53;;
39410;SDS011;26579;43.238;23.124;2023-08-06T08:49:28;4.05;;;2.60;;
39410;SDS011;26579;43.238;23.124;2023-08-06T08:51:55;4.28;;;3.05;;
39410;SDS011;26579;43.238;23.124;2023-08-06T08:54:22;3.40;;;2.53;;
39410;SDS011;26579;43.238;23.124;2023-08-06T08:56:49;3.60;;;2.20;;
39410;SDS011;26579;43.238;23.124;2023-08-06T08:59:15;3.72;;;2.53;;
39410;SDS011;26579;43.238;23.124;2023-08-06T09:01:40;2.58;;;2.10;;
39410;SDS011;26579;43.238;23.124;2023-08-06T09:04:07;3.83;;;2.80;;
39410;SDS011;26579;43.238;23.124;2023-08-06T09:06:36;3.50;;;2.38;;
39410;SDS011;26579;43.238;23.124;2023-08-06T09:09:08;3.35;;;2.80;;
39410;SDS011;26579;43.238;23.124;2023-08-06T09:11:39;4.47;;;2.30;;
39410;SDS011;26579;43.238;23.124;2023-08-06T09:14:08;3.28;;;2.17;;
39410;SDS011;26579;43.238;23.124;2023-08-06T09:16:35;4.60;;;2.70;;
39410;SDS011;26579;43.238;23.124;2023-08-06T09:19:10;6.07;;;3.78;;
39410;SDS011;26579;43.238;23.124;2023-08-06T09:21:37;7.00;;;3.05;;
39410;SDS011;26579;43.238;23.124;2023-08-06T09:24:10;5.55;;;2.90;;
39410;SDS011;26579;43.238;23.124;2023-08-06T09:26:43;4.32;;;3.50;;
39410;SDS011;26579;43.238;23.124;2023-08-06T09:29:10;4.03;;;2.10;;
39410;SDS011;26579;43.238;23.124;2023-08-06T09:34:18;4.75;;;2.03;;
39410;SDS011;26579;43.238;23.124;2023-08-06T09:36:47;3.08;;;2.03;;
39410;SDS011;26579;43.238;23.124;2023-08-06T09:39:18;7.20;;;2.20;;
39410;SDS011;26579;43.238;23.124;2023-08-06T09:41:44;2.60;;;1.77;;
39410;SDS011;26579;43.238;23.124;2023-08-06T09:44:17;2.50;;;1.65;;
39410;SDS011;26579;43.238;23.124;2023-08-06T09:46:51;1.92;;;1.48;;
39410;SDS011;26579;43.238;23.124;2023-08-06T09:49:18;2.65;;;2.00;;
39410;SDS011;26579;43.238;23.124;2023-08-06T09:51:46;4.13;;;1.88;;
39410;SDS011;26579;43.238;23.124;2023-08-06T09:54:12;3.38;;;1.88;;
39410;SDS011;26579;43.238;23.124;2023-08-06T09:56:40;3.60;;;1.90;;
39410;SDS011;26579;43.238;23.124;2023-08-06T09:59:07;3.72;;;1.90;;
39410;SDS011;26579;43.238;23.124;2023-08-06T10:01:34;3.42;;;2.20;;
39410;SDS011;26579;43.238;23.124;2023-08-06T10:04:01;2.97;;;2.20;;
39410;SDS011;26579;43.238;23.124;2023-08-06T10:06:29;7.60;;;2.47;;
39410;SDS011;26579;43.238;23.124;2023-08-06T10:08:55;4.78;;;1.70;;
39410;SDS011;26579;43.238;23.124;2023-08-06T10:11:22;5.65;;;2.25;;
39410;SDS011;26579;43.238;23.124;2023-08-06T10:13:50;2.67;;;1.80;;
39410;SDS011;26579;43.238;23.124;2023-08-06T10:16:20;3.10;;;2.30;;
39410;SDS011;26579;43.238;23.124;2023-08-06T10:18:47;4.15;;;2.33;;
39410;SDS011;26579;43.238;23.124;2023-08-06T10:21:15;3.67;;;1.95;;
39410;SDS011;26579;43.238;23.124;2023-08-06T10:23:40;3.03;;;2.22;;
39410;SDS011;26579;43.238;23.124;2023-08-06T10:26:07;2.67;;;1.98;;
39410;SDS011;26579;43.238;23.124;2023-08-06T10:28:33;4.57;;;2.17;;
39410;SDS011;26579;43.238;23.124;2023-08-06T10:31:03;4.43;;;1.80;;
39410;SDS011;26579;43.238;23.124;2023-08-06T10:33:44;2.95;;;1.83;;
39410;SDS011;26579;43.238;23.124;2023-08-06T10:36:11;3.17;;;2.13;;
39410;SDS011;26579;43.238;23.124;2023-08-06T10:38:46;4.70;;;2.00;;
39410;SDS011;26579;43.238;23.124;2023-08-06T10:41:23;5.82;;;2.60;;
39410;SDS011;26579;43.238;23.124;2023-08-06T10:44:06;4.72;;;1.90;;
39410;SDS011;26579;43.238;23.124;2023-08-06T10:46:33;2.67;;;1.60;;
39410;SDS011;26579;43.238;23.124;2023-08-06T10:48:58;4.65;;;2.10;;
39410;SDS011;26579;43.238;23.124;2023-08-06T10:51:24;5.63;;;1.88;;
39410;SDS011;26579;43.238;23.124;2023-08-06T10:53:50;4.07;;;1.85;;
39410;SDS011;26579;43.238;23.124;2023-08-06T10:56:17;3.50;;;2.08;;
39410;SDS011;26579;43.238;23.124;2023-08-06T10:58:44;3.25;;;2.17;;
39410;SDS011;26579;43.238;23.124;2023-08-06T11:01:11;6.10;;;2.33;;
39410;SDS011;26579;43.238;23.124;2023-08-06T11:03:37;3.30;;;1.83;;
39410;SDS011;26579;43.238;23.124;2023-08-06T11:06:04;6.22;;;2.17;;
39410;SDS011;26579;43.238;23.124;2023-08-06T11:08:36;7.82;;;2.40;;
39410;SDS011;26579;43.238;23.124;2023-08-06T11:11:09;3.08;;;1.90;;
39410;SDS011;26579;43.238;23.124;2023-08-06T11:13:36;3.43;;;2.00;;
39410;SDS011;26579;43.238;23.124;2023-08-06T11:16:05;5.45;;;2.80;;
39410;SDS011;26579;43.238;23.124;2023-08-06T11:18:32;4.25;;;2.63;;
39410;SDS011;26579;43.238;23.124;2023-08-06T11:21:01;3.75;;;2.35;;
39410;SDS011;26579;43.238;23.124;2023-08-06T11:23:30;5.18;;;2.85;;
39410;SDS011;26579;43.238;23.124;2023-08-06T11:25:56;4.95;;;2.78;;
39410;SDS011;26579;43.238;23.124;2023-08-06T11:28:22;4.00;;;2.05;;
39410;SDS011;26579;43.238;23.124;2023-08-06T11:30:49;2.33;;;1.52;;
39410;SDS011;26579;43.238;23.124;2023-08-06T11:33:20;2.72;;;1.63;;
39410;SDS011;26579;43.238;23.124;2023-08-06T11:38:14;4.10;;;2.30;;
39410;SDS011;26579;43.238;23.124;2023-08-06T11:40:40;3.20;;;2.10;;
39410;SDS011;26579;43.238;23.124;2023-08-06T11:43:06;4.40;;;2.60;;
39410;SDS011;26579;43.238;23.124;2023-08-06T11:45:34;3.92;;;2.33;;
39410;SDS011;26579;43.238;23.124;2023-08-06T11:48:01;4.20;;;2.47;;
39410;SDS011;26579;43.238;23.124;2023-08-06T11:50:26;4.93;;;2.70;;
39410;SDS011;26579;43.238;23.124;2023-08-06T11:52:56;3.25;;;2.28;;
39410;SDS011;26579;43.238;23.124;2023-08-06T11:55:24;2.47;;;2.13;;
39410;SDS011;26579;43.238;23.124;2023-08-06T11:57:51;2.47;;;1.83;;
39410;SDS011;26579;43.238;23.124;2023-08-06T12:00:17;3.05;;;1.67;;
39410;SDS011;26579;43.238;23.124;2023-08-06T12:02:44;3.10;;;2.05;;
39410;SDS011;26579;43.238;23.124;2023-08-06T12:05:14;4.22;;;2.42;;
39410;SDS011;26579;43.238;23.124;2023-08-06T12:07:42;2.95;;;2.20;;
39410;SDS011;26579;43.238;23.124;2023-08-06T12:10:12;3.25;;;2.20;;
39410;SDS011;26579;43.238;23.124;2023-08-06T12:12:39;3.58;;;2.05;;
39410;SDS011;26579;43.238;23.124;2023-08-06T12:15:05;2.60;;;2.05;;
39410;SDS011;26579;43.238;23.124;2023-08-06T12:17:32;3.47;;;1.90;;
39410;SDS011;26579;43.238;23.124;2023-08-06T12:19:58;4.25;;;2.65;;
39410;SDS011;26579;43.238;23.124;2023-08-06T12:22:24;3.47;;;2.00;;
39410;SDS011;26579;43.238;23.124;2023-08-06T12:24:50;4.03;;;2.30;;
39410;SDS011;26579;43.238;23.124;2023-08-06T12:27:16;3.58;;;2.33;;
39410;SDS011;26579;43.238;23.124;2023-08-06T12:29:42;3.35;;;2.20;;
39410;SDS011;26579;43.238;23.124;2023-08-06T12:32:12;3.30;;;2.25;;
39410;SDS011;26579;43.238;23.124;2023-08-06T12:34:38;2.75;;;1.98;;
39410;SDS011;26579;43.238;23.124;2023-08-06T12:37:05;2.88;;;1.88;;
39410;SDS011;26579;43.238;23.124;2023-08-06T12:39:31;2.92;;;1.90;;
39410;SDS011;26579;43.238;23.124;2023-08-06T12:41:56;2.80;;;1.90;;
39410;SDS011;26579;43.238;23.124;2023-08-06T12:44:22;3.60;;;2.10;;
39410;SDS011;26579;43.238;23.124;2023-08-06T12:46:48;2.75;;;2.08;;
39410;SDS011;26579;43.238;23.124;2023-08-06T12:49:14;3.60;;;2.38;;
39410;SDS011;26579;43.238;23.124;2023-08-06T12:51:40;4.28;;;2.08;;
39410;SDS011;26579;43.238;23.124;2023-08-06T12:54:05;2.28;;;1.70;;
39410;SDS011;26579;43.238;23.124;2023-08-06T12:56:31;3.03;;;1.95;;
39410;SDS011;26579;43.238;23.124;2023-08-06T12:58:57;2.30;;;1.80;;
39410;SDS011;26579;43.238;23.124;2023-08-06T13:01:22;3.80;;;2.38;;
39410;SDS011;26579;43.238;23.124;2023-08-06T13:03:48;3.13;;;2.08;;
39410;SDS011;26579;43.238;23.124;2023-08-06T13:06:14;3.92;;;2.75;;
39410;SDS011;26579;43.238;23.124;2023-08-06T13:08:39;4.80;;;3.20;;
39410;SDS011;26579;43.238;23.124;2023-08-06T13:11:05;2.60;;;1.65;;
39410;SDS011;26579;43.238;23.124;2023-08-06T13:13:31;3.17;;;2.03;;
39410;SDS011;26579;43.238;23.124;2023-08-06T13:15:56;7.95;;;2.45;;
39410;SDS011;26579;43.238;23.124;2023-08-06T13:18:22;3.65;;;2.10;;
39410;SDS011;26579;43.238;23.124;2023-08-06T13:20:48;2.78;;;2.03;;
39410;SDS011;26579;43.238;23.124;2023-08-06T13:23:13;3.45;;;2.20;;
39410;SDS011;26579;43.238;23.124;2023-08-06T13:25:39;3.20;;;2.40;;
39410;SDS011;26579;43.238;23.124;2023-08-06T13:28:05;2.80;;;1.90;;
39410;SDS011;26579;43.238;23.124;2023-08-06T13:30:30;3.72;;;2.08;;
39410;SDS011;26579;43.238;23.124;2023-08-06T13:32:56;3.40;;;2.38;;
39410;SDS011;26579;43.238;23.124;2023-08-06T13:35:22;3.53;;;2.10;;
39410;SDS011;26579;43.238;23.124;2023-08-06T13:37:48;4.00;;;2.10;;
39410;SDS011;26579;43.238;23.124;2023-08-06T13:40:14;4.72;;;2.45;;
39410;SDS011;26579;43.238;23.124;2023-08-06T13:42:40;4.93;;;2.28;;
39410;SDS011;26579;43.238;23.124;2023-08-06T13:45:06;3.50;;;2.20;;
39410;SDS011;26579;43.238;23.124;2023-08-06T13:47:32;5.40;;;2.20;;
39410;SDS011;26579;43.238;23.124;2023-08-06T13:49:58;3.80;;;2.40;;
39410;SDS011;26579;43.238;23.124;2023-08-06T13:52:27;3.20;;;2.25;;
39410;SDS011;26579;43.238;23.124;2023-08-06T13:54:52;3.90;;;1.77;;
39410;SDS011;26579;43.238;23.124;2023-08-06T13:57:18;3.88;;;2.40;;
39410;SDS011;26579;43.238;23.124;2023-08-06T13:59:44;3.70;;;2.50;;
39410;SDS011;26579;43.238;23.124;2023-08-06T14:02:09;4.03;;;2.40;;
39410;SDS011;26579;43.238;23.124;2023-08-06T14:04:35;11.63;;;7.07;;
39410;SDS011;26579;43.238;23.124;2023-08-06T14:07:01;3.22;;;2.53;;
39410;SDS011;26579;43.238;23.124;2023-08-06T14:09:31;7.25;;;2.50;;
39410;SDS011;26579;43.238;23.124;2023-08-06T14:11:57;3.60;;;2.03;;
39410;SDS011;26579;43.238;23.124;2023-08-06T14:14:22;3.95;;;2.33;;
39410;SDS011;26579;43.238;23.124;2023-08-06T14:16:48;7.53;;;3.00;;
39410;SDS011;26579;43.238;23.124;2023-08-06T14:19:14;4.10;;;2.40;;
39410;SDS011;26579;43.238;23.124;2023-08-06T14:21:39;5.82;;;2.55;;
39410;SDS011;26579;43.238;23.124;2023-08-06T14:24:05;3.75;;;2.20;;
39410;SDS011;26579;43.238;23.124;2023-08-06T14:26:30;4.55;;;2.60;;
39410;SDS011;26579;43.238;23.124;2023-08-06T14:28:56;3.95;;;2.05;;
39410;SDS011;26579;43.238;23.124;2023-08-06T14:31:22;5.10;;;2.45;;
39410;SDS011;26579;43.238;23.124;2023-08-06T14:33:48;5.85;;;2.42;;
39410;SDS011;26579;43.238;23.124;2023-08-06T14:36:13;3.50;;;2.10;;
39410;SDS011;26579;43.238;23.124;2023-08-06T14:38:39;3.80;;;2.33;;
39410;SDS011;26579;43.238;23.124;2023-08-06T14:41:06;3.90;;;2.35;;